Time;durP1;ratioP1;P1;durP2;ratioP2;P2;SDS_P1;SDS_P2;PMS_P1;PMS_P2;Temp;Humidity;BMP_temperature;BMP_pressure;BME280_temperature;BME280_humidity;BME280_pressure;Samples;Min_cycle;Max_cycle;Signal;HPM_P1;HPM_P2
2022/11/11 00:00:22;;;;;;;4.30;1.90;;;;;;;;;;4952754;28;20130;-81
2022/11/11 00:02:48;;;;;;;4.55;1.55;;;;;;;;;;4929599;28;20032;-80
2022/11/11 00:05:17;;;;;;;6.35;2.00;;;;;;;;;;4959301;28;20051;-79
2022/11/11 00:07:43;;;;;;;4.40;1.70;;;;;;;;;;4947375;28;20046;-80
2022/11/11 00:10:09;;;;;;;6.47;2.13;;;;;;;;;;4950800;28;20035;-78
2022/11/11 00:12:34;;;;;;;4.70;1.60;;;;;;;;;;4943607;29;20506;-79
2022/11/11 00:15:00;;;;;;;8.13;2.05;;;;;;;;;;4950528;28;20039;-79
2022/11/11 00:25:38;;;;;;;4.97;1.65;;;;;;;;;;4941280;28;20066;-80
2022/11/11 00:28:04;;;;;;;5.88;2.00;;;;;;;;;;4946247;28;20114;-79
2022/11/11 00:30:29;;;;;;;4.85;2.00;;;;;;;;;;4959475;28;20026;-79
2022/11/11 00:32:55;;;;;;;5.07;2.13;;;;;;;;;;4952865;28;20109;-79
2022/11/11 00:40:56;;;;;;;4.75;1.90;;;;;;;;;;4968462;28;20114;-79
2022/11/11 00:43:21;;;;;;;4.13;2.13;;;;;;;;;;4958440;28;20759;-80
2022/11/11 00:45:47;;;;;;;4.93;2.20;;;;;;;;;;4953182;28;20051;-78
2022/11/11 00:50:59;;;;;;;5.45;1.90;;;;;;;;;;4952469;28;20447;-79
2022/11/11 00:53:28;;;;;;;6.13;1.80;;;;;;;;;;4941410;28;20042;-79
2022/11/11 00:55:54;;;;;;;4.55;1.70;;;;;;;;;;4955326;28;20114;-80
2022/11/11 00:58:21;;;;;;;5.45;2.28;;;;;;;;;;4955739;28;20059;-79
2022/11/11 01:00:49;;;;;;;7.03;2.28;;;;;;;;;;4963230;28;20521;-78
2022/11/11 01:03:14;;;;;;;6.05;2.17;;;;;;;;;;4973267;28;20035;-79
2022/11/11 01:05:40;;;;;;;6.50;2.20;;;;;;;;;;4956000;28;20057;-79
2022/11/11 01:08:05;;;;;;;4.80;1.75;;;;;;;;;;4991323;28;20118;-79
2022/11/11 01:10:37;;;;;;;5.63;1.98;;;;;;;;;;4986099;28;20034;-78
2022/11/11 01:13:12;;;;;;;7.32;2.38;;;;;;;;;;4977664;28;20031;-79
2022/11/11 01:15:38;;;;;;;7.60;2.92;;;;;;;;;;4985359;28;20587;-79
2022/11/11 01:18:05;;;;;;;7.50;2.30;;;;;;;;;;4969379;28;20044;-79
2022/11/11 01:20:30;;;;;;;5.47;2.25;;;;;;;;;;4985174;28;20077;-79
2022/11/11 01:22:55;;;;;;;6.30;2.17;;;;;;;;;;4973510;28;20512;-79
2022/11/11 01:25:24;;;;;;;5.30;2.55;;;;;;;;;;4978732;28;20061;-80
2022/11/11 01:27:52;;;;;;;6.07;2.10;;;;;;;;;;4981526;28;20591;-79
2022/11/11 01:30:17;;;;;;;6.50;2.17;;;;;;;;;;4980094;28;20062;-79
2022/11/11 01:32:43;;;;;;;6.95;2.40;;;;;;;;;;4988454;28;20061;-78
2022/11/11 01:35:08;;;;;;;7.80;2.63;;;;;;;;;;4963545;28;20393;-79
2022/11/11 01:37:34;;;;;;;7.25;2.22;;;;;;;;;;4960887;28;20038;-78
2022/11/11 01:39:59;;;;;;;6.85;2.30;;;;;;;;;;4984341;28;20044;-78
2022/11/11 01:42:25;;;;;;;6.80;2.25;;;;;;;;;;4985643;28;20042;-79
2022/11/11 01:44:50;;;;;;;4.70;2.30;;;;;;;;;;4965959;28;20085;-79
2022/11/11 01:47:17;;;;;;;5.30;2.15;;;;;;;;;;4965091;28;20088;-79
2022/11/11 01:49:55;;;;;;;6.50;2.92;;;;;;;;;;4988547;28;20477;-80
2022/11/11 01:52:30;;;;;;;7.85;2.53;;;;;;;;;;4967042;28;20035;-79
2022/11/11 01:55:03;;;;;;;7.65;2.33;;;;;;;;;;4986954;28;20104;-80
2022/11/11 01:57:34;;;;;;;5.10;2.70;;;;;;;;;;4975867;28;20030;-79
2022/11/11 02:00:08;;;;;;;6.35;2.38;;;;;;;;;;4969644;28;20038;-81
2022/11/11 02:02:44;;;;;;;5.88;2.00;;;;;;;;;;4968226;28;20864;-78
2022/11/11 02:08:02;;;;;;;6.93;2.70;;;;;;;;;;4996048;28;20061;-81
2022/11/11 02:10:29;;;;;;;7.00;2.50;;;;;;;;;;4985530;28;20056;-79
2022/11/11 02:15:39;;;;;;;7.38;2.60;;;;;;;;;;4985983;28;20845;-79
2022/11/11 02:18:04;;;;;;;7.78;2.75;;;;;;;;;;4985205;28;20038;-80
2022/11/11 02:20:34;;;;;;;7.30;2.05;;;;;;;;;;4973132;28;20030;-78
2022/11/11 02:23:08;;;;;;;5.03;2.08;;;;;;;;;;4974400;28;20129;-79
2022/11/11 02:25:36;;;;;;;8.50;2.38;;;;;;;;;;4998049;28;20469;-79
2022/11/11 02:28:04;;;;;;;6.38;2.58;;;;;;;;;;4981156;28;20076;-79
2022/11/11 02:30:30;;;;;;;6.88;2.25;;;;;;;;;;4977388;28;20478;-80
2022/11/11 02:33:15;;;;;;;4.43;1.92;;;;;;;;;;4987637;28;20125;-79
2022/11/11 02:35:45;;;;;;;6.55;2.58;;;;;;;;;;4922178;28;20760;-80
2022/11/11 02:38:11;;;;;;;6.15;2.40;;;;;;;;;;4905619;29;20044;-79
2022/11/11 02:43:26;;;;;;;4.22;2.35;;;;;;;;;;4908733;29;20054;-79
2022/11/11 02:45:54;;;;;;;9.98;2.33;;;;;;;;;;4894224;29;20044;-78
2022/11/11 02:48:20;;;;;;;5.72;2.55;;;;;;;;;;4906767;28;20051;-78
2022/11/11 02:50:46;;;;;;;4.82;2.30;;;;;;;;;;4911322;29;20044;-78
2022/11/11 02:53:11;;;;;;;6.55;2.20;;;;;;;;;;4902235;29;20043;-79
2022/11/11 02:55:36;;;;;;;7.38;2.33;;;;;;;;;;4890927;29;20060;-78
2022/11/11 02:58:02;;;;;;;7.03;2.33;;;;;;;;;;4895508;28;20096;-79
2022/11/11 03:00:28;;;;;;;6.65;2.45;;;;;;;;;;4903042;29;20051;-79
2022/11/11 03:02:53;;;;;;;7.10;2.47;;;;;;;;;;4911747;28;20683;-78
2022/11/11 03:05:18;;;;;;;8.70;2.70;;;;;;;;;;4891738;28;20055;-79
2022/11/11 03:07:44;;;;;;;9.48;3.20;;;;;;;;;;4905453;29;20522;-79
2022/11/11 03:10:09;;;;;;;5.30;2.45;;;;;;;;;;4903548;28;20036;-80
2022/11/11 03:12:35;;;;;;;8.43;2.75;;;;;;;;;;4928063;28;20471;-79
2022/11/11 03:15:00;;;;;;;5.47;2.67;;;;;;;;;;4970073;28;20031;-79
2022/11/11 03:17:40;;;;;;;6.40;2.70;;;;;;;;;;4981555;28;20489;-80
2022/11/11 03:23:04;;;;;;;6.25;2.45;;;;;;;;;;4988409;28;20048;-79
2022/11/11 03:25:39;;;;;;;6.75;2.85;;;;;;;;;;4976759;28;20382;-79
2022/11/11 03:28:11;;;;;;;5.95;2.30;;;;;;;;;;4988365;28;20034;-79
2022/11/11 03:30:41;;;;;;;5.95;2.80;;;;;;;;;;4966688;28;20148;-80
2022/11/11 03:33:07;;;;;;;7.32;2.72;;;;;;;;;;4994334;28;20038;-79
2022/11/11 03:35:32;;;;;;;6.35;2.60;;;;;;;;;;4984041;28;20042;-80
2022/11/11 03:40:43;;;;;;;5.75;2.20;;;;;;;;;;4994542;28;20064;-79
2022/11/11 03:43:09;;;;;;;6.15;2.75;;;;;;;;;;4988964;28;20505;-78
2022/11/11 03:45:35;;;;;;;6.57;2.55;;;;;;;;;;4971351;28;20413;-79
2022/11/11 03:48:00;;;;;;;8.50;2.78;;;;;;;;;;4969047;28;20022;-79
2022/11/11 03:50:25;;;;;;;9.05;2.60;;;;;;;;;;4969723;28;20034;-80
2022/11/11 03:52:51;;;;;;;5.32;2.40;;;;;;;;;;4977926;28;20042;-79
2022/11/11 03:55:16;;;;;;;5.18;2.33;;;;;;;;;;4988879;28;20037;-79
2022/11/11 03:57:44;;;;;;;5.78;2.60;;;;;;;;;;4970333;28;20511;-80
2022/11/11 04:00:11;;;;;;;7.82;2.50;;;;;;;;;;4971190;28;20069;-80
2022/11/11 04:11:13;;;;;;;6.95;2.50;;;;;;;;;;4987913;28;20041;-80
2022/11/11 04:16:25;;;;;;;5.28;2.22;;;;;;;;;;4992663;28;20093;-79
2022/11/11 04:21:44;;;;;;;9.50;2.75;;;;;;;;;;4973718;28;20042;-78
2022/11/11 04:27:12;;;;;;;6.00;2.45;;;;;;;;;;4970888;28;20037;-79
2022/11/11 04:29:37;;;;;;;7.57;2.63;;;;;;;;;;4943247;28;20054;-79
2022/11/11 04:35:12;;;;;;;8.13;2.75;;;;;;;;;;4981241;28;20041;-79
2022/11/11 04:37:50;;;;;;;9.35;2.58;;;;;;;;;;4969080;28;20046;-79
2022/11/11 04:43:00;;;;;;;7.75;2.83;;;;;;;;;;4978968;28;20057;-79
2022/11/11 04:45:29;;;;;;;6.82;2.72;;;;;;;;;;4990335;28;20026;-81
2022/11/11 04:47:57;;;;;;;6.00;2.75;;;;;;;;;;4970196;28;20366;-79
2022/11/11 04:50:24;;;;;;;6.22;2.80;;;;;;;;;;4973141;28;20095;-79
2022/11/11 04:52:50;;;;;;;5.47;2.60;;;;;;;;;;4970841;28;20026;-79
2022/11/11 04:58:00;;;;;;;6.30;2.42;;;;;;;;;;4995326;28;20091;-79
2022/11/11 05:00:25;;;;;;;7.07;2.28;;;;;;;;;;4965895;28;20544;-79
2022/11/11 05:08:55;;;;;;;7.88;2.60;;;;;;;;;;4989583;28;20116;-78
2022/11/11 05:11:40;;;;;;;5.85;2.20;;;;;;;;;;4971664;28;20113;-79
2022/11/11 05:22:38;;;;;;;6.25;2.38;;;;;;;;;;4979736;28;20118;-81
2022/11/11 05:27:48;;;;;;;6.03;3.00;;;;;;;;;;4992871;28;20077;-81
2022/11/11 05:30:14;;;;;;;5.18;2.33;;;;;;;;;;4984065;28;20093;-81
2022/11/11 05:32:40;;;;;;;5.38;2.33;;;;;;;;;;4995920;28;20439;-81
2022/11/11 05:35:07;;;;;;;5.38;2.47;;;;;;;;;;4981023;28;20026;-82
2022/11/11 05:37:32;;;;;;;8.15;2.78;;;;;;;;;;4994371;28;20065;-82
2022/11/11 05:39:58;;;;;;;8.52;2.95;;;;;;;;;;4982423;28;20061;-82
2022/11/11 05:42:23;;;;;;;6.88;2.33;;;;;;;;;;4972668;28;20038;-78
2022/11/11 05:44:49;;;;;;;5.47;2.63;;;;;;;;;;4982751;28;20070;-78
2022/11/11 05:47:17;;;;;;;11.27;2.60;;;;;;;;;;4990192;28;20034;-78
2022/11/11 05:49:43;;;;;;;6.65;3.13;;;;;;;;;;4974263;28;20572;-78
2022/11/11 05:52:12;;;;;;;7.63;2.47;;;;;;;;;;4979376;28;20061;-78
2022/11/11 05:54:39;;;;;;;6.07;2.35;;;;;;;;;;4993634;28;20500;-77
2022/11/11 05:57:04;;;;;;;5.05;2.38;;;;;;;;;;4985464;28;20046;-79
2022/11/11 05:59:29;;;;;;;8.95;2.55;;;;;;;;;;4981786;28;20034;-78
2022/11/11 06:01:55;;;;;;;8.45;3.40;;;;;;;;;;4970921;28;20034;-81
2022/11/11 06:04:20;;;;;;;6.03;2.53;;;;;;;;;;4972361;28;20069;-80
2022/11/11 06:07:06;;;;;;;8.23;2.33;;;;;;;;;;4978562;28;20154;-82
2022/11/11 06:09:31;;;;;;;9.48;2.85;;;;;;;;;;4925783;29;20095;-81
2022/11/11 06:11:57;;;;;;;5.20;2.33;;;;;;;;;;4899854;29;20440;-81
2022/11/11 06:14:23;;;;;;;8.30;2.85;;;;;;;;;;4907752;29;20051;-82
2022/11/11 06:16:49;;;;;;;8.27;2.78;;;;;;;;;;4908333;29;20032;-81
2022/11/11 06:19:16;;;;;;;7.65;2.75;;;;;;;;;;4902071;29;20549;-78
2022/11/11 06:21:56;;;;;;;6.88;2.78;;;;;;;;;;4923438;29;20044;-86
2022/11/11 06:24:22;;;;;;;5.45;2.30;;;;;;;;;;4895188;29;20472;-86
2022/11/11 06:26:47;;;;;;;6.95;2.97;;;;;;;;;;4908894;29;20036;-87
2022/11/11 06:29:12;;;;;;;5.05;2.45;;;;;;;;;;4911548;29;20043;-86
2022/11/11 06:31:38;;;;;;;6.50;2.70;;;;;;;;;;4912820;29;20044;-86
2022/11/11 06:34:03;;;;;;;6.97;2.80;;;;;;;;;;4912740;29;20082;-85
2022/11/11 06:36:29;;;;;;;8.80;2.92;;;;;;;;;;4908825;29;20039;-85
2022/11/11 06:38:57;;;;;;;11.25;2.70;;;;;;;;;;4901552;29;20499;-87
2022/11/11 06:41:24;;;;;;;7.70;2.90;;;;;;;;;;4905291;29;20043;-80
2022/11/11 06:43:50;;;;;;;8.88;3.03;;;;;;;;;;4904221;29;20039;-83
2022/11/11 06:46:24;;;;;;;6.20;2.58;;;;;;;;;;4939013;28;20037;-80
2022/11/11 06:48:49;;;;;;;7.68;2.60;;;;;;;;;;4966973;28;20077;-81
2022/11/11 06:51:15;;;;;;;7.82;2.90;;;;;;;;;;4981844;28;20069;-79
2022/11/11 06:53:41;;;;;;;10.27;3.22;;;;;;;;;;4974190;28;20112;-79
2022/11/11 06:56:07;;;;;;;8.68;3.30;;;;;;;;;;4980534;28;20092;-80
2022/11/11 06:58:33;;;;;;;8.35;3.42;;;;;;;;;;4974677;28;20097;-79
2022/11/11 07:01:02;;;;;;;7.38;2.72;;;;;;;;;;4992086;28;20079;-79
2022/11/11 07:03:28;;;;;;;6.75;3.22;;;;;;;;;;4974790;28;20046;-80
2022/11/11 07:05:54;;;;;;;7.53;3.10;;;;;;;;;;4972840;28;20053;-80
2022/11/11 07:08:19;;;;;;;7.80;2.70;;;;;;;;;;4973351;28;20178;-81
2022/11/11 07:10:47;;;;;;;7.45;2.80;;;;;;;;;;4978390;28;20114;-80
2022/11/11 07:13:13;;;;;;;7.45;2.85;;;;;;;;;;4977278;28;20161;-81
2022/11/11 07:15:40;;;;;;;8.20;2.72;;;;;;;;;;4979966;28;20043;-81
2022/11/11 07:18:05;;;;;;;4.95;2.38;;;;;;;;;;4977423;28;20129;-80
2022/11/11 07:20:31;;;;;;;5.32;2.60;;;;;;;;;;4997606;28;20090;-81
2022/11/11 07:22:56;;;;;;;5.85;2.70;;;;;;;;;;4975528;28;20057;-80
2022/11/11 07:25:22;;;;;;;6.05;3.00;;;;;;;;;;4967942;28;20034;-80
2022/11/11 07:27:47;;;;;;;6.10;2.40;;;;;;;;;;4987509;28;20401;-80
2022/11/11 07:30:13;;;;;;;6.38;2.75;;;;;;;;;;4972098;28;20121;-80
2022/11/11 07:32:45;;;;;;;6.05;2.63;;;;;;;;;;4986871;28;20116;-80
2022/11/11 07:35:13;;;;;;;7.03;2.78;;;;;;;;;;4985957;28;20485;-80
2022/11/11 07:37:38;;;;;;;9.95;3.03;;;;;;;;;;4971739;28;20029;-81
2022/11/11 07:40:04;;;;;;;6.75;2.50;;;;;;;;;;4966063;28;20045;-80
2022/11/11 07:42:30;;;;;;;5.10;2.20;;;;;;;;;;4965197;28;20434;-81
2022/11/11 07:44:55;;;;;;;8.02;2.50;;;;;;;;;;4952344;28;20092;-81
2022/11/11 07:47:21;;;;;;;5.78;2.53;;;;;;;;;;4992953;28;20026;-80
2022/11/11 07:49:46;;;;;;;6.72;2.50;;;;;;;;;;4965517;28;20069;-80
2022/11/11 07:52:11;;;;;;;7.13;2.63;;;;;;;;;;4985554;28;20039;-79
2022/11/11 07:54:37;;;;;;;9.40;2.50;;;;;;;;;;4993040;28;20966;-81
2022/11/11 07:57:02;;;;;;;8.98;2.78;;;;;;;;;;4992477;28;20401;-80
2022/11/11 07:59:27;;;;;;;7.75;2.40;;;;;;;;;;4990901;28;20042;-80
2022/11/11 08:01:53;;;;;;;6.80;2.80;;;;;;;;;;4994966;28;20031;-80
2022/11/11 08:04:18;;;;;;;5.63;2.30;;;;;;;;;;4979142;28;20038;-81
2022/11/11 08:06:43;;;;;;;6.55;2.60;;;;;;;;;;4956703;28;20477;-81
2022/11/11 08:09:09;;;;;;;4.60;2.30;;;;;;;;;;4984221;28;20038;-79
2022/11/11 08:14:18;;;;;;;7.68;2.83;;;;;;;;;;4981306;28;20041;-81
2022/11/11 08:16:43;;;;;;;7.85;2.17;;;;;;;;;;4947340;28;20040;-81
2022/11/11 08:19:09;;;;;;;7.70;2.50;;;;;;;;;;4989229;28;20034;-80
2022/11/11 08:21:34;;;;;;;5.93;2.38;;;;;;;;;;4978627;28;20116;-80
2022/11/11 08:24:00;;;;;;;7.15;2.55;;;;;;;;;;4970880;28;20041;-80
2022/11/11 08:26:25;;;;;;;6.70;2.70;;;;;;;;;;4968239;28;20033;-80
2022/11/11 08:28:51;;;;;;;5.95;2.22;;;;;;;;;;4982778;28;20113;-80
2022/11/11 08:31:17;;;;;;;6.47;3.00;;;;;;;;;;5002299;28;20030;-80
2022/11/11 08:33:43;;;;;;;5.25;2.10;;;;;;;;;;4973139;28;20386;-83
2022/11/11 08:36:10;;;;;;;5.15;2.25;;;;;;;;;;4988343;28;20128;-80
2022/11/11 08:38:36;;;;;;;6.28;2.22;;;;;;;;;;4979412;28;20043;-79
2022/11/11 08:41:22;;;;;;;6.50;2.58;;;;;;;;;;4973633;28;20037;-81
2022/11/11 08:43:58;;;;;;;5.60;2.43;;;;;;;;;;4938451;28;20047;-80
2022/11/11 08:46:24;;;;;;;7.50;2.50;;;;;;;;;;4929149;28;20039;-80
2022/11/11 08:48:50;;;;;;;7.00;2.60;;;;;;;;;;4906696;28;20102;-81
2022/11/11 08:51:15;;;;;;;5.30;2.22;;;;;;;;;;4917539;29;20039;-80
2022/11/11 08:53:41;;;;;;;5.85;1.92;;;;;;;;;;4911825;28;20036;-81
2022/11/11 08:56:07;;;;;;;9.27;2.53;;;;;;;;;;4932141;28;20039;-80
2022/11/11 08:58:33;;;;;;;5.70;2.20;;;;;;;;;;4928416;28;20161;-81
2022/11/11 09:01:00;;;;;;;3.63;1.90;;;;;;;;;;4911928;28;20039;-81
2022/11/11 09:03:26;;;;;;;6.68;2.63;;;;;;;;;;4912772;29;20067;-81
2022/11/11 09:05:51;;;;;;;6.10;2.22;;;;;;;;;;4919689;28;20915;-80
2022/11/11 09:08:17;;;;;;;7.05;2.80;;;;;;;;;;4914940;29;20043;-81
2022/11/11 09:10:42;;;;;;;5.60;2.30;;;;;;;;;;4920871;28;20043;-80
2022/11/11 09:13:08;;;;;;;5.03;2.20;;;;;;;;;;4919876;28;20080;-81
2022/11/11 09:15:34;;;;;;;7.22;2.22;;;;;;;;;;4909149;28;20043;-80
2022/11/11 09:18:00;;;;;;;10.15;2.58;;;;;;;;;;4927937;29;20040;-81
2022/11/11 09:20:26;;;;;;;6.40;2.08;;;;;;;;;;4952340;28;20046;-82
2022/11/11 09:22:52;;;;;;;6.45;2.40;;;;;;;;;;4976011;28;20034;-81
2022/11/11 09:25:18;;;;;;;4.78;1.90;;;;;;;;;;4962958;28;20038;-81
2022/11/11 09:27:43;;;;;;;8.27;2.40;;;;;;;;;;4994744;28;20046;-80
2022/11/11 09:30:10;;;;;;;7.38;2.20;;;;;;;;;;4969489;28;20132;-80
2022/11/11 09:32:36;;;;;;;5.13;2.22;;;;;;;;;;4968913;28;20516;-81
2022/11/11 09:35:02;;;;;;;9.32;2.67;;;;;;;;;;4993136;28;20034;-81
2022/11/11 09:37:28;;;;;;;5.97;2.55;;;;;;;;;;4968109;28;20043;-82
2022/11/11 09:39:55;;;;;;;5.13;2.40;;;;;;;;;;4993825;28;20370;-81
2022/11/11 09:42:23;;;;;;;4.75;1.95;;;;;;;;;;4977389;28;20034;-82
2022/11/11 09:45:10;;;;;;;4.68;1.85;;;;;;;;;;4993184;28;20037;-81
2022/11/11 09:47:48;;;;;;;5.50;1.98;;;;;;;;;;4971223;28;20046;-80
2022/11/11 09:50:24;;;;;;;5.18;1.88;;;;;;;;;;4973647;28;20049;-81
2022/11/11 09:53:19;;;;;;;4.57;1.73;;;;;;;;;;4977548;28;20404;-80
2022/11/11 09:55:48;;;;;;;5.78;1.67;;;;;;;;;;4971991;28;21042;-81
2022/11/11 09:58:18;;;;;;;6.28;1.70;;;;;;;;;;4961202;28;20104;-80
2022/11/11 10:00:59;;;;;;;5.88;1.90;;;;;;;;;;4978412;28;20026;-80
2022/11/11 10:03:25;;;;;;;6.82;1.83;;;;;;;;;;4986732;28;20061;-80
2022/11/11 10:06:01;;;;;;;4.57;2.00;;;;;;;;;;4976856;28;20465;-79
2022/11/11 10:08:41;;;;;;;5.90;1.60;;;;;;;;;;4986767;28;20033;-80
2022/11/11 10:11:16;;;;;;;4.72;1.77;;;;;;;;;;4964604;28;20046;-80
2022/11/11 10:13:41;;;;;;;5.68;1.80;;;;;;;;;;4972389;28;20393;-80
2022/11/11 10:16:34;;;;;;;5.10;1.98;;;;;;;;;;4980212;28;20042;-80
2022/11/11 10:19:17;;;;;;;5.03;1.95;;;;;;;;;;4975590;28;20062;-80
2022/11/11 10:21:47;;;;;;;5.00;2.00;;;;;;;;;;4962285;28;20043;-79
2022/11/11 10:24:16;;;;;;;4.32;1.63;;;;;;;;;;4983723;28;20057;-80
2022/11/11 10:26:44;;;;;;;4.90;1.50;;;;;;;;;;4986081;28;20133;-79
2022/11/11 10:29:15;;;;;;;6.55;1.80;;;;;;;;;;4951767;28;20110;-79
2022/11/11 10:31:41;;;;;;;4.75;1.60;;;;;;;;;;4956314;28;20077;-79
2022/11/11 10:34:15;;;;;;;4.10;1.45;;;;;;;;;;4976197;28;20456;-81
2022/11/11 10:36:49;;;;;;;6.75;1.63;;;;;;;;;;4967634;28;20038;-80
2022/11/11 10:39:21;;;;;;;4.68;1.40;;;;;;;;;;4983241;28;20441;-79
2022/11/11 10:41:48;;;;;;;6.05;2.08;;;;;;;;;;4972604;28;20378;-80
2022/11/11 10:44:40;;;;;;;5.20;1.30;;;;;;;;;;4972596;28;20148;-80
2022/11/11 10:47:21;;;;;;;4.32;1.48;;;;;;;;;;4972718;28;20870;-80
2022/11/11 10:50:03;;;;;;;3.25;1.35;;;;;;;;;;4995644;28;20034;-82
2022/11/11 10:52:41;;;;;;;4.13;1.40;;;;;;;;;;4961054;28;20043;-82
2022/11/11 10:55:17;;;;;;;3.70;1.55;;;;;;;;;;4976787;28;20130;-79
2022/11/11 10:57:56;;;;;;;6.25;1.83;;;;;;;;;;4960119;28;20038;-82
2022/11/11 11:00:22;;;;;;;6.25;1.55;;;;;;;;;;4982884;28;20044;-81
2022/11/11 11:02:55;;;;;;;4.57;1.40;;;;;;;;;;4973645;28;20042;-81
2022/11/11 11:05:28;;;;;;;6.28;1.63;;;;;;;;;;4969637;28;20137;-81
2022/11/11 11:07:58;;;;;;;5.15;1.35;;;;;;;;;;4978099;28;20050;-82
2022/11/11 11:10:33;;;;;;;3.92;1.40;;;;;;;;;;4955553;28;20039;-82
2022/11/11 11:13:37;;;;;;;5.05;1.60;;;;;;;;;;4962494;28;20030;-83
2022/11/11 11:16:06;;;;;;;4.55;1.67;;;;;;;;;;4982665;28;20705;-81
2022/11/11 11:18:31;;;;;;;3.00;1.17;;;;;;;;;;4973293;28;20034;-82
2022/11/11 11:21:02;;;;;;;5.22;1.58;;;;;;;;;;4945839;28;20031;-81
2022/11/11 11:23:39;;;;;;;3.38;1.40;;;;;;;;;;4953789;28;20043;-82
2022/11/11 11:26:06;;;;;;;5.15;1.50;;;;;;;;;;4972757;28;20031;-79
2022/11/11 11:28:33;;;;;;;5.05;1.45;;;;;;;;;;4983491;28;20037;-81
2022/11/11 11:31:01;;;;;;;6.45;1.30;;;;;;;;;;4966562;28;20034;-81
2022/11/11 11:33:26;;;;;;;3.97;1.25;;;;;;;;;;4965282;28;20088;-81
2022/11/11 11:35:52;;;;;;;5.07;1.52;;;;;;;;;;4966047;28;20035;-80
2022/11/11 11:38:17;;;;;;;4.20;1.45;;;;;;;;;;4991211;28;20098;-80
2022/11/11 11:40:47;;;;;;;4.20;1.55;;;;;;;;;;4993989;28;20116;-81
2022/11/11 11:43:36;;;;;;;2.80;1.15;;;;;;;;;;4976336;28;20045;-79
2022/11/11 11:46:13;;;;;;;6.47;1.30;;;;;;;;;;4963337;28;20038;-79
2022/11/11 11:49:10;;;;;;;6.05;1.50;;;;;;;;;;4961326;28;20034;-80
2022/11/11 11:51:36;;;;;;;3.13;1.27;;;;;;;;;;4961340;28;20340;-80
2022/11/11 11:54:10;;;;;;;4.20;1.33;;;;;;;;;;4976544;28;20059;-80
2022/11/11 11:56:38;;;;;;;4.15;1.27;;;;;;;;;;4975815;28;20381;-81
2022/11/11 11:59:12;;;;;;;3.75;1.25;;;;;;;;;;4958831;28;20125;-79
2022/11/11 12:01:57;;;;;;;3.10;1.25;;;;;;;;;;4975221;28;20038;-80
2022/11/11 12:04:25;;;;;;;3.42;1.40;;;;;;;;;;4979062;28;20050;-81
2022/11/11 12:07:40;;;;;;;4.00;1.20;;;;;;;;;;4973613;28;20073;-80
2022/11/11 12:10:43;;;;;;;5.38;1.30;;;;;;;;;;4958095;28;20433;-81
2022/11/11 12:13:18;;;;;;;3.92;1.08;;;;;;;;;;4974505;28;20030;-83
2022/11/11 12:16:12;;;;;;;3.25;1.30;;;;;;;;;;4974461;28;20030;-81
2022/11/11 12:18:58;;;;;;;3.10;0.98;;;;;;;;;;4971645;28;20047;-82
2022/11/11 12:21:28;;;;;;;4.35;1.38;;;;;;;;;;4975401;28;20041;-82
2022/11/11 12:24:27;;;;;;;4.50;1.40;;;;;;;;;;4984566;28;20493;-81
2022/11/11 12:27:11;;;;;;;8.02;1.50;;;;;;;;;;4977722;28;20039;-81
2022/11/11 12:29:59;;;;;;;3.08;1.05;;;;;;;;;;4976673;28;20042;-81
2022/11/11 12:32:36;;;;;;;3.70;1.30;;;;;;;;;;4966405;28;20509;-81
2022/11/11 12:35:14;;;;;;;3.03;1.17;;;;;;;;;;4974409;28;20857;-81
2022/11/11 12:37:48;;;;;;;3.85;1.30;;;;;;;;;;4963937;28;20042;-81
2022/11/11 12:40:36;;;;;;;3.22;1.30;;;;;;;;;;4958409;28;20547;-81
2022/11/11 12:43:19;;;;;;;3.08;1.23;;;;;;;;;;4943596;28;20515;-82
2022/11/11 12:45:48;;;;;;;3.38;1.20;;;;;;;;;;4954840;28;20039;-81
2022/11/11 12:48:53;;;;;;;2.70;1.00;;;;;;;;;;4956821;28;20038;-82
2022/11/11 12:51:45;;;;;;;3.28;1.10;;;;;;;;;;4963847;28;20050;-82
2022/11/11 12:54:38;;;;;;;3.05;1.17;;;;;;;;;;4953890;28;20037;-81
2022/11/11 12:57:09;;;;;;;3.13;0.90;;;;;;;;;;4958151;28;20050;-82
2022/11/11 12:59:57;;;;;;;3.38;1.20;;;;;;;;;;4972294;28;20043;-81
2022/11/11 13:02:45;;;;;;;4.43;1.23;;;;;;;;;;4957485;28;20390;-81
2022/11/11 13:05:22;;;;;;;3.90;1.40;;;;;;;;;;4942839;28;20042;-82
2022/11/11 13:08:00;;;;;;;2.85;1.13;;;;;;;;;;4972444;28;20041;-81
2022/11/11 13:10:32;;;;;;;3.30;0.95;;;;;;;;;;4960272;28;20039;-81
2022/11/11 13:13:26;;;;;;;3.33;1.35;;;;;;;;;;4966604;28;20450;-83
2022/11/11 13:15:52;;;;;;;4.03;1.55;;;;;;;;;;4971323;28;20100;-81
2022/11/11 13:18:59;;;;;;;3.42;1.30;;;;;;;;;;4964157;28;20042;-81
2022/11/11 13:21:35;;;;;;;4.13;1.30;;;;;;;;;;4925565;28;20390;-82
2022/11/11 13:24:00;;;;;;;2.75;1.10;;;;;;;;;;4971059;28;20038;-81
2022/11/11 13:26:27;;;;;;;3.72;1.30;;;;;;;;;;4993830;28;20110;-81
2022/11/11 13:29:19;;;;;;;3.28;1.10;;;;;;;;;;4960155;28;20042;-82
2022/11/11 13:31:48;;;;;;;3.47;1.10;;;;;;;;;;4936826;28;20045;-83
2022/11/11 13:34:16;;;;;;;3.35;1.33;;;;;;;;;;4994850;28;20034;-82
2022/11/11 13:36:51;;;;;;;3.67;1.30;;;;;;;;;;4960864;28;20663;-83
2022/11/11 13:39:29;;;;;;;3.17;1.40;;;;;;;;;;4965619;28;20065;-83
2022/11/11 13:41:56;;;;;;;5.43;1.20;;;;;;;;;;4975473;28;20540;-84
2022/11/11 13:44:44;;;;;;;4.30;1.20;;;;;;;;;;4970859;28;20349;-83
2022/11/11 13:47:18;;;;;;;4.55;1.25;;;;;;;;;;4988957;28;20042;-83
2022/11/11 13:49:59;;;;;;;3.20;1.08;;;;;;;;;;4962065;28;20500;-82
2022/11/11 13:52:39;;;;;;;6.55;1.40;;;;;;;;;;4963664;28;20033;-83
2022/11/11 13:55:09;;;;;;;4.35;1.42;;;;;;;;;;4977132;28;20034;-83
2022/11/11 13:57:49;;;;;;;4.15;1.20;;;;;;;;;;4971812;28;20030;-83
2022/11/11 14:00:17;;;;;;;4.28;1.33;;;;;;;;;;4973696;28;20030;-83
2022/11/11 14:02:43;;;;;;;3.50;1.10;;;;;;;;;;4978544;28;20042;-84
2022/11/11 14:05:08;;;;;;;4.85;1.30;;;;;;;;;;4980181;28;20455;-81
2022/11/11 14:07:43;;;;;;;3.95;1.20;;;;;;;;;;4980287;28;20042;-81
2022/11/11 14:10:09;;;;;;;3.35;1.20;;;;;;;;;;4978443;28;20562;-81
2022/11/11 14:12:37;;;;;;;3.58;1.15;;;;;;;;;;4982539;28;20096;-81
2022/11/11 14:15:36;;;;;;;2.95;1.17;;;;;;;;;;4991409;28;20030;-80
2022/11/11 14:18:03;;;;;;;3.40;1.30;;;;;;;;;;4929530;28;20573;-81
2022/11/11 14:20:35;;;;;;;4.97;1.95;;;;;;;;;;4950442;28;20118;-82
2022/11/11 14:23:27;;;;;;;3.50;1.25;;;;;;;;;;4973035;28;20038;-81
2022/11/11 14:26:04;;;;;;;3.25;1.20;;;;;;;;;;4969384;28;20035;-81
2022/11/11 14:28:30;;;;;;;;;;;;;;;;;;4978169;28;20122;-81
2022/11/11 14:31:20;;;;;;;3.63;1.10;;;;;;;;;;4978884;28;20008;-81
2022/11/11 14:34:18;;;;;;;4.22;1.13;;;;;;;;;;4902901;29;20091;-80
2022/11/11 14:36:55;;;;;;;3.80;1.23;;;;;;;;;;4888481;29;20558;-81
2022/11/11 14:39:31;;;;;;;3.47;1.05;;;;;;;;;;4893750;29;20135;-81
2022/11/11 14:42:17;;;;;;;2.90;1.17;;;;;;;;;;4925836;29;20035;-81
2022/11/11 14:44:43;;;;;;;4.13;1.20;;;;;;;;;;4883106;29;20044;-81
2022/11/11 14:47:17;;;;;;;3.20;1.10;;;;;;;;;;4867339;29;20048;-81
2022/11/11 14:49:42;;;;;;;4.10;1.15;;;;;;;;;;4857118;29;20096;-82
2022/11/11 14:52:40;;;;;;;3.20;1.17;;;;;;;;;;4883252;29;20078;-83
2022/11/11 14:55:18;;;;;;;4.40;1.48;;;;;;;;;;4834893;29;20456;-81
2022/11/11 14:57:49;;;;;;;4.00;1.30;;;;;;;;;;4856528;29;20493;-85
2022/11/11 15:00:50;;;;;;;5.93;1.63;;;;;;;;;;4867167;29;20040;-84
2022/11/11 15:03:35;;;;;;;5.45;1.40;;;;;;;;;;4854594;29;20161;-83
2022/11/11 15:06:18;;;;;;;3.15;1.08;;;;;;;;;;4880686;29;20100;-84
2022/11/11 15:09:02;;;;;;;4.20;1.20;;;;;;;;;;4873253;29;20514;-83
2022/11/11 15:12:06;;;;;;;4.18;1.20;;;;;;;;;;4899518;29;20039;-82
2022/11/11 15:14:34;;;;;;;3.72;1.48;;;;;;;;;;4926672;28;20031;-83
2022/11/11 15:17:27;;;;;;;3.30;1.20;;;;;;;;;;4945708;28;20039;-83
2022/11/11 15:20:24;;;;;;;4.20;1.27;;;;;;;;;;4946163;28;20047;-83
2022/11/11 15:22:49;;;;;;;6.25;1.77;;;;;;;;;;4967719;28;20038;-84
2022/11/11 15:25:36;;;;;;;3.95;1.42;;;;;;;;;;4977693;28;20064;-85
2022/11/11 15:28:07;;;;;;;4.28;1.45;;;;;;;;;;4973677;28;20370;-84
2022/11/11 15:31:15;;;;;;;4.20;1.60;;;;;;;;;;4993909;28;20497;-84
2022/11/11 15:33:58;;;;;;;4.82;1.60;;;;;;;;;;4913115;28;20073;-84
2022/11/11 15:36:54;;;;;;;3.88;1.50;;;;;;;;;;4964044;28;20034;-84
2022/11/11 15:39:23;;;;;;;5.75;1.67;;;;;;;;;;4977201;28;20034;-84
2022/11/11 15:41:50;;;;;;;5.30;1.92;;;;;;;;;;4961840;28;20038;-84
2022/11/11 15:44:21;;;;;;;3.70;1.58;;;;;;;;;;4971291;28;20038;-84
2022/11/11 15:46:48;;;;;;;4.07;1.63;;;;;;;;;;4977668;28;20504;-84
2022/11/11 15:49:46;;;;;;;5.82;1.90;;;;;;;;;;4982774;28;20026;-84
2022/11/11 15:52:31;;;;;;;4.47;1.70;;;;;;;;;;4976238;28;20057;-84
2022/11/11 15:54:57;;;;;;;3.90;1.67;;;;;;;;;;4983919;28;20524;-84
2022/11/11 15:57:23;;;;;;;5.63;1.70;;;;;;;;;;4967862;28;20378;-84
2022/11/11 15:59:48;;;;;;;4.95;1.95;;;;;;;;;;4978009;28;20045;-81
2022/11/11 16:02:20;;;;;;;4.57;1.90;;;;;;;;;;4979001;28;20045;-82
2022/11/11 16:05:02;;;;;;;6.25;1.90;;;;;;;;;;4972808;28;20117;-82
2022/11/11 16:07:43;;;;;;;4.68;1.90;;;;;;;;;;4968878;28;20067;-82
2022/11/11 16:10:30;;;;;;;4.93;2.00;;;;;;;;;;4978568;28;20031;-83
2022/11/11 16:13:03;;;;;;;6.15;1.60;;;;;;;;;;4985097;28;20493;-84
2022/11/11 16:15:56;;;;;;;4.68;1.80;;;;;;;;;;4976846;28;20038;-82
2022/11/11 16:18:25;;;;;;;4.38;1.60;;;;;;;;;;4976498;28;20064;-82
2022/11/11 16:20:56;;;;;;;4.30;1.92;;;;;;;;;;4970094;28;20030;-81
2022/11/11 16:23:23;;;;;;;5.05;2.17;;;;;;;;;;4970096;28;20039;-83
2022/11/11 16:25:52;;;;;;;7.65;2.53;;;;;;;;;;4966014;28;20057;-81